Terminal Aerodrome Forecast
Issued by NWS

Home | Current Version | Previous Version | Graphics & Text | Print | Product List | Glossary On
Versions: 1 2 3 4 5 6 7 8 9 10 11 12 13 14 15 16 17 18 19 20
000
FTUS42 KMHX 160221 AAB
TAFPGV
TAF AMD
KPGV 160221Z 1602/1624 VRB03KT P6SM VCTS SCT040CB
      TEMPO 1602/1604 5SM RA BKN035
     FM160400 00000KT 5SM BR SCT010 SCT050
     FM160900 00000KT 3SM BR SCT005 BKN008
     FM161300 VRB04KT P6SM SCT015 BKN060
      AMD LTD TO CLD VIS AND WIND=

USA.gov is the U.S. government's official web portal to all federal, state and local government web resources and services.